sensor_id;sensor_type;location;lat;lon;timestamp;pressure;altitude;pressure_sealevel;temperature;humidity
14089;BME280;7120;52.890;6.040;2022-12-18T00:02:21;102782.69;;;-2.14;92.90
14089;BME280;7120;52.890;6.040;2022-12-18T00:04:47;102763.75;;;-2.05;92.71
14089;BME280;7120;52.890;6.040;2022-12-18T00:07:12;102775.16;;;-2.03;92.75
14089;BME280;7120;52.890;6.040;2022-12-18T00:09:37;102769.59;;;-2.01;91.84
14089;BME280;7120;52.890;6.040;2022-12-18T00:12:03;102757.72;;;-2.07;92.27
14089;BME280;7120;52.890;6.040;2022-12-18T00:14:28;102766.44;;;-1.97;92.72
14089;BME280;7120;52.890;6.040;2022-12-18T00:16:54;102754.38;;;-2.09;91.89
14089;BME280;7120;52.890;6.040;2022-12-18T00:19:19;102741.53;;;-2.38;91.86
14089;BME280;7120;52.890;6.040;2022-12-18T00:21:45;102763.78;;;-2.29;92.74
14089;BME280;7120;52.890;6.040;2022-12-18T00:24:11;102757.13;;;-2.50;93.13
14089;BME280;7120;52.890;6.040;2022-12-18T00:26:38;102752.91;;;-2.36;92.77
14089;BME280;7120;52.890;6.040;2022-12-18T00:29:14;102757.63;;;-2.38;93.31
14089;BME280;7120;52.890;6.040;2022-12-18T00:31:41;102749.75;;;-2.47;93.34
14089;BME280;7120;52.890;6.040;2022-12-18T00:34:10;102753.75;;;-2.43;93.16
14089;BME280;7120;52.890;6.040;2022-12-18T00:36:36;102746.38;;;-2.41;92.75
14089;BME280;7120;52.890;6.040;2022-12-18T00:39:04;102765.66;;;-2.30;92.66
14089;BME280;7120;52.890;6.040;2022-12-18T00:41:30;102750.41;;;-2.29;91.95
14089;BME280;7120;52.890;6.040;2022-12-18T00:44:15;102771.31;;;-2.33;92.24
14089;BME280;7120;52.890;6.040;2022-12-18T00:46:42;102770.34;;;-2.32;91.61
14089;BME280;7120;52.890;6.040;2022-12-18T00:49:08;102773.84;;;-2.23;91.68
14089;BME280;7120;52.890;6.040;2022-12-18T00:51:34;102756.72;;;-2.14;91.20
14089;BME280;7120;52.890;6.040;2022-12-18T00:53:59;102761.28;;;-2.31;91.15
14089;BME280;7120;52.890;6.040;2022-12-18T00:56:25;102748.88;;;-2.40;91.55
14089;BME280;7120;52.890;6.040;2022-12-18T00:58:50;102742.06;;;-2.59;91.59
14089;BME280;7120;52.890;6.040;2022-12-18T01:01:16;102762.97;;;-2.38;91.48
14089;BME280;7120;52.890;6.040;2022-12-18T01:03:41;102744.53;;;-2.33;91.71
14089;BME280;7120;52.890;6.040;2022-12-18T01:06:09;102762.47;;;-2.50;91.15
14089;BME280;7120;52.890;6.040;2022-12-18T01:08:37;102760.16;;;-2.53;91.67
14089;BME280;7120;52.890;6.040;2022-12-18T01:11:15;102778.88;;;-2.77;92.00
14089;BME280;7120;52.890;6.040;2022-12-18T01:13:40;102773.38;;;-2.59;91.93
14089;BME280;7120;52.890;6.040;2022-12-18T01:16:07;102787.91;;;-2.37;91.20
14089;BME280;7120;52.890;6.040;2022-12-18T01:18:32;102767.16;;;-2.52;91.40
14089;BME280;7120;52.890;6.040;2022-12-18T01:20:58;102764.16;;;-2.73;91.42
14089;BME280;7120;52.890;6.040;2022-12-18T01:23:23;102769.16;;;-2.78;91.69
14089;BME280;7120;52.890;6.040;2022-12-18T01:25:49;102773.69;;;-2.79;91.96
14089;BME280;7120;52.890;6.040;2022-12-18T01:28:14;102762.44;;;-2.90;92.09
14089;BME280;7120;52.890;6.040;2022-12-18T01:30:40;102761.31;;;-2.80;91.83
14089;BME280;7120;52.890;6.040;2022-12-18T01:33:05;102732.34;;;-2.92;91.04
14089;BME280;7120;52.890;6.040;2022-12-18T01:35:31;102765.16;;;-2.74;91.39
14089;BME280;7120;52.890;6.040;2022-12-18T01:37:57;102772.84;;;-2.95;91.84
14089;BME280;7120;52.890;6.040;2022-12-18T01:40:23;102766.97;;;-2.91;91.73
14089;BME280;7120;52.890;6.040;2022-12-18T01:42:52;102763.16;;;-2.80;91.70
14089;BME280;7120;52.890;6.040;2022-12-18T01:47:52;102777.38;;;-2.88;91.29
14089;BME280;7120;52.890;6.040;2022-12-18T01:50:35;102785.88;;;-3.00;92.37
14089;BME280;7120;52.890;6.040;2022-12-18T01:53:16;102787.53;;;-3.08;92.70
14089;BME280;7120;52.890;6.040;2022-12-18T01:55:46;102804.94;;;-2.95;92.14
14089;BME280;7120;52.890;6.040;2022-12-18T01:58:13;102802.28;;;-2.87;92.73
14089;BME280;7120;52.890;6.040;2022-12-18T02:00:39;102790.88;;;-2.97;91.70
14089;BME280;7120;52.890;6.040;2022-12-18T02:03:05;102788.00;;;-3.12;92.65
14089;BME280;7120;52.890;6.040;2022-12-18T02:11:30;102789.69;;;-3.11;92.27
14089;BME280;7120;52.890;6.040;2022-12-18T02:14:18;102801.09;;;-3.01;92.38
14089;BME280;7120;52.890;6.040;2022-12-18T02:17:16;102803.56;;;-3.08;91.87
14089;BME280;7120;52.890;6.040;2022-12-18T02:20:08;102798.84;;;-3.22;92.42
14089;BME280;7120;52.890;6.040;2022-12-18T02:25:33;102793.91;;;-3.00;91.61
14089;BME280;7120;52.890;6.040;2022-12-18T02:28:06;102787.72;;;-3.01;91.66
14089;BME280;7120;52.890;6.040;2022-12-18T02:30:35;102791.50;;;-3.12;91.91
14089;BME280;7120;52.890;6.040;2022-12-18T02:33:04;102790.75;;;-2.96;90.96
14089;BME280;7120;52.890;6.040;2022-12-18T02:35:31;102791.41;;;-2.86;90.22
14089;BME280;7120;52.890;6.040;2022-12-18T02:37:58;102786.34;;;-3.05;91.08
14089;BME280;7120;52.890;6.040;2022-12-18T02:40:26;102778.66;;;-3.16;90.99
14089;BME280;7120;52.890;6.040;2022-12-18T02:42:52;102782.28;;;-3.25;90.62
14089;BME280;7120;52.890;6.040;2022-12-18T02:45:17;102779.94;;;-3.28;90.90
14089;BME280;7120;52.890;6.040;2022-12-18T02:47:46;102772.50;;;-3.51;90.73
14089;BME280;7120;52.890;6.040;2022-12-18T02:50:30;102779.75;;;-3.35;91.43
14089;BME280;7120;52.890;6.040;2022-12-18T02:53:34;102773.84;;;-3.47;91.18
14089;BME280;7120;52.890;6.040;2022-12-18T02:56:55;102766.16;;;-3.50;91.04
14089;BME280;7120;52.890;6.040;2022-12-18T02:59:16;102765.25;;;-3.67;91.45
14089;BME280;7120;52.890;6.040;2022-12-18T03:02:07;102762.09;;;-3.62;92.62
14089;BME280;7120;52.890;6.040;2022-12-18T03:04:45;102761.72;;;-3.67;92.08
14089;BME280;7120;52.890;6.040;2022-12-18T03:07:22;102754.22;;;-3.72;91.89
14089;BME280;7120;52.890;6.040;2022-12-18T03:09:50;102757.19;;;-3.75;91.31
14089;BME280;7120;52.890;6.040;2022-12-18T03:12:34;102749.16;;;-3.75;91.10
14089;BME280;7120;52.890;6.040;2022-12-18T03:15:30;102751.31;;;-3.87;91.10
14089;BME280;7120;52.890;6.040;2022-12-18T03:18:01;102754.13;;;-3.88;90.39
14089;BME280;7120;52.890;6.040;2022-12-18T03:20:29;102743.34;;;-4.04;90.35
14089;BME280;7120;52.890;6.040;2022-12-18T03:23:00;102751.91;;;-4.01;90.45
14089;BME280;7120;52.890;6.040;2022-12-18T03:25:27;102754.56;;;-4.01;90.47
14089;BME280;7120;52.890;6.040;2022-12-18T03:27:56;102768.06;;;-4.02;89.22
14089;BME280;7120;52.890;6.040;2022-12-18T03:30:25;102767.34;;;-4.12;89.15
14089;BME280;7120;52.890;6.040;2022-12-18T03:35:37;102771.19;;;-4.15;89.20
14089;BME280;7120;52.890;6.040;2022-12-18T03:38:04;102751.72;;;-4.25;88.94
14089;BME280;7120;52.890;6.040;2022-12-18T03:43:13;102750.09;;;-4.44;89.55
14089;BME280;7120;52.890;6.040;2022-12-18T03:45:51;102751.19;;;-4.55;90.06
14089;BME280;7120;52.890;6.040;2022-12-18T03:48:29;102750.53;;;-4.57;90.58
14089;BME280;7120;52.890;6.040;2022-12-18T03:50:59;102756.38;;;-4.53;90.80
14089;BME280;7120;52.890;6.040;2022-12-18T03:53:43;102753.47;;;-4.60;91.14
14089;BME280;7120;52.890;6.040;2022-12-18T03:56:13;102758.31;;;-4.63;90.87
14089;BME280;7120;52.890;6.040;2022-12-18T03:58:40;102746.03;;;-4.56;89.71
14089;BME280;7120;52.890;6.040;2022-12-18T04:01:08;102734.06;;;-4.70;89.16
14089;BME280;7120;52.890;6.040;2022-12-18T04:03:36;102736.44;;;-4.85;89.50
14089;BME280;7120;52.890;6.040;2022-12-18T04:06:03;102734.53;;;-4.92;89.91
14089;BME280;7120;52.890;6.040;2022-12-18T04:08:29;102742.06;;;-4.88;90.33
14089;BME280;7120;52.890;6.040;2022-12-18T04:10:54;102727.50;;;-4.93;90.16
14089;BME280;7120;52.890;6.040;2022-12-18T04:13:25;102736.06;;;-4.90;89.89
14089;BME280;7120;52.890;6.040;2022-12-18T04:15:52;102733.22;;;-4.88;90.44
14089;BME280;7120;52.890;6.040;2022-12-18T04:18:18;102731.94;;;-4.84;89.56
14089;BME280;7120;52.890;6.040;2022-12-18T04:20:43;102739.47;;;-4.80;89.04
14089;BME280;7120;52.890;6.040;2022-12-18T04:23:09;102753.75;;;-4.71;88.82
14089;BME280;7120;52.890;6.040;2022-12-18T04:25:34;102755.25;;;-4.86;88.80
14089;BME280;7120;52.890;6.040;2022-12-18T04:28:00;102736.91;;;-4.89;88.20
14089;BME280;7120;52.890;6.040;2022-12-18T04:30:25;102736.28;;;-5.01;87.98
14089;BME280;7120;52.890;6.040;2022-12-18T04:32:50;102758.47;;;-4.83;87.68
14089;BME280;7120;52.890;6.040;2022-12-18T04:35:16;102733.09;;;-5.05;87.68
14089;BME280;7120;52.890;6.040;2022-12-18T04:37:41;102738.59;;;-5.06;88.18
14089;BME280;7120;52.890;6.040;2022-12-18T04:40:07;102742.53;;;-5.10;88.03
14089;BME280;7120;52.890;6.040;2022-12-18T04:42:32;102742.25;;;-5.07;88.60
14089;BME280;7120;52.890;6.040;2022-12-18T04:44:58;102730.63;;;-5.16;88.35
14089;BME280;7120;52.890;6.040;2022-12-18T04:47:23;102737.66;;;-5.15;87.56
14089;BME280;7120;52.890;6.040;2022-12-18T04:49:48;102721.72;;;-5.25;88.04
14089;BME280;7120;52.890;6.040;2022-12-18T04:52:15;102736.97;;;-5.17;87.68
14089;BME280;7120;52.890;6.040;2022-12-18T04:54:40;102744.28;;;-5.19;87.48
14089;BME280;7120;52.890;6.040;2022-12-18T04:57:05;102734.81;;;-5.31;88.12
14089;BME280;7120;52.890;6.040;2022-12-18T04:59:31;102746.31;;;-5.31;89.10
14089;BME280;7120;52.890;6.040;2022-12-18T05:01:56;102742.06;;;-5.41;89.19
14089;BME280;7120;52.890;6.040;2022-12-18T05:04:22;102749.97;;;-5.32;89.62
14089;BME280;7120;52.890;6.040;2022-12-18T05:06:47;102759.81;;;-5.32;88.78
14089;BME280;7120;52.890;6.040;2022-12-18T05:09:12;102756.94;;;-5.21;88.64
14089;BME280;7120;52.890;6.040;2022-12-18T05:11:38;102732.16;;;-5.31;88.14
14089;BME280;7120;52.890;6.040;2022-12-18T05:14:03;102759.75;;;-5.22;88.02
14089;BME280;7120;52.890;6.040;2022-12-18T05:16:29;102752.56;;;-5.22;87.20
14089;BME280;7120;52.890;6.040;2022-12-18T05:18:54;102741.31;;;-5.34;87.30
14089;BME280;7120;52.890;6.040;2022-12-18T05:21:19;102754.47;;;-5.32;87.20
14089;BME280;7120;52.890;6.040;2022-12-18T05:23:46;102763.00;;;-5.29;87.23
14089;BME280;7120;52.890;6.040;2022-12-18T05:26:16;102759.97;;;-5.34;86.80
14089;BME280;7120;52.890;6.040;2022-12-18T05:28:42;102764.38;;;-5.42;86.46
14089;BME280;7120;52.890;6.040;2022-12-18T05:31:08;102778.78;;;-5.35;86.70
14089;BME280;7120;52.890;6.040;2022-12-18T05:33:34;102776.97;;;-5.35;86.09
14089;BME280;7120;52.890;6.040;2022-12-18T05:36:02;102754.22;;;-5.57;86.82
14089;BME280;7120;52.890;6.040;2022-12-18T05:38:29;102771.66;;;-5.44;86.28
14089;BME280;7120;52.890;6.040;2022-12-18T05:40:55;102782.41;;;-5.36;86.89
14089;BME280;7120;52.890;6.040;2022-12-18T05:43:21;102794.53;;;-5.42;86.43
14089;BME280;7120;52.890;6.040;2022-12-18T05:45:47;102786.41;;;-5.50;85.90
14089;BME280;7120;52.890;6.040;2022-12-18T05:48:13;102807.47;;;-5.47;85.41
14089;BME280;7120;52.890;6.040;2022-12-18T05:50:40;102781.16;;;-5.60;85.55
14089;BME280;7120;52.890;6.040;2022-12-18T05:53:06;102800.38;;;-5.56;86.30
14089;BME280;7120;52.890;6.040;2022-12-18T05:55:33;102789.13;;;-5.60;85.03
14089;BME280;7120;52.890;6.040;2022-12-18T05:57:58;102782.19;;;-5.70;86.34
14089;BME280;7120;52.890;6.040;2022-12-18T06:00:24;102806.66;;;-5.57;86.08
14089;BME280;7120;52.890;6.040;2022-12-18T06:02:49;102795.06;;;-5.66;86.32
14089;BME280;7120;52.890;6.040;2022-12-18T06:05:14;102800.13;;;-5.72;86.54
14089;BME280;7120;52.890;6.040;2022-12-18T06:07:40;102794.13;;;-5.74;85.90
14089;BME280;7120;52.890;6.040;2022-12-18T06:10:06;102800.69;;;-5.69;86.39
14089;BME280;7120;52.890;6.040;2022-12-18T06:12:31;102796.94;;;-5.76;86.16
14089;BME280;7120;52.890;6.040;2022-12-18T06:14:59;102785.44;;;-5.76;86.75
14089;BME280;7120;52.890;6.040;2022-12-18T06:17:28;102786.44;;;-5.77;87.09
14089;BME280;7120;52.890;6.040;2022-12-18T06:19:54;102791.59;;;-5.76;87.31
14089;BME280;7120;52.890;6.040;2022-12-18T06:22:19;102781.94;;;-5.77;87.61
14089;BME280;7120;52.890;6.040;2022-12-18T06:24:45;102774.69;;;-5.85;87.82
14089;BME280;7120;52.890;6.040;2022-12-18T06:27:10;102778.53;;;-5.69;88.01
14089;BME280;7120;52.890;6.040;2022-12-18T06:29:35;102769.72;;;-5.70;88.61
14089;BME280;7120;52.890;6.040;2022-12-18T06:32:01;102756.50;;;-5.71;88.41
14089;BME280;7120;52.890;6.040;2022-12-18T06:34:26;102748.97;;;-5.76;89.13
14089;BME280;7120;52.890;6.040;2022-12-18T06:36:51;102750.94;;;-5.78;88.67
14089;BME280;7120;52.890;6.040;2022-12-18T06:39:17;102758.22;;;-5.70;88.38
14089;BME280;7120;52.890;6.040;2022-12-18T06:41:42;102757.06;;;-5.68;89.29
14089;BME280;7120;52.890;6.040;2022-12-18T06:44:07;102750.34;;;-5.72;89.21
14089;BME280;7120;52.890;6.040;2022-12-18T06:46:33;102760.13;;;-5.63;89.00
14089;BME280;7120;52.890;6.040;2022-12-18T06:48:58;102749.47;;;-5.63;88.49
14089;BME280;7120;52.890;6.040;2022-12-18T06:51:24;102743.59;;;-5.66;89.20
14089;BME280;7120;52.890;6.040;2022-12-18T06:53:49;102743.44;;;-5.65;89.11
14089;BME280;7120;52.890;6.040;2022-12-18T06:56:15;102739.59;;;-5.53;88.86
14089;BME280;7120;52.890;6.040;2022-12-18T06:58:41;102742.00;;;-5.59;88.19
14089;BME280;7120;52.890;6.040;2022-12-18T07:01:09;102729.16;;;-5.64;89.43
14089;BME280;7120;52.890;6.040;2022-12-18T07:03:35;102739.34;;;-5.59;88.80
14089;BME280;7120;52.890;6.040;2022-12-18T07:06:01;102736.41;;;-5.56;88.63
14089;BME280;7120;52.890;6.040;2022-12-18T07:08:26;102734.00;;;-5.59;89.01
14089;BME280;7120;52.890;6.040;2022-12-18T07:10:51;102717.25;;;-5.69;89.03
14089;BME280;7120;52.890;6.040;2022-12-18T07:13:19;102729.75;;;-5.52;88.72
14089;BME280;7120;52.890;6.040;2022-12-18T07:15:44;102723.16;;;-5.48;89.15
14089;BME280;7120;52.890;6.040;2022-12-18T07:18:09;102720.34;;;-5.46;89.19
14089;BME280;7120;52.890;6.040;2022-12-18T07:20:35;102692.28;;;-5.50;89.40
14089;BME280;7120;52.890;6.040;2022-12-18T07:23:04;102719.81;;;-5.32;88.90
14089;BME280;7120;52.890;6.040;2022-12-18T07:25:33;102710.81;;;-5.49;89.49
14089;BME280;7120;52.890;6.040;2022-12-18T07:27:58;102741.22;;;-5.24;89.14
14089;BME280;7120;52.890;6.040;2022-12-18T07:30:24;102732.78;;;-5.19;89.20
14089;BME280;7120;52.890;6.040;2022-12-18T07:32:49;102727.75;;;-5.22;88.80
14089;BME280;7120;52.890;6.040;2022-12-18T07:35:15;102719.63;;;-5.21;88.47
14089;BME280;7120;52.890;6.040;2022-12-18T07:37:40;102729.75;;;-5.07;88.55
14089;BME280;7120;52.890;6.040;2022-12-18T07:40:06;102718.47;;;-5.18;88.90
14089;BME280;7120;52.890;6.040;2022-12-18T07:42:31;102724.47;;;-4.99;88.89
14089;BME280;7120;52.890;6.040;2022-12-18T07:45:00;102722.50;;;-4.97;88.53
14089;BME280;7120;52.890;6.040;2022-12-18T07:47:27;102726.16;;;-4.98;88.88
14089;BME280;7120;52.890;6.040;2022-12-18T07:49:52;102733.91;;;-4.86;88.83
14089;BME280;7120;52.890;6.040;2022-12-18T07:52:18;102718.00;;;-4.96;89.16
14089;BME280;7120;52.890;6.040;2022-12-18T07:54:43;102716.63;;;-4.82;88.73
14089;BME280;7120;52.890;6.040;2022-12-18T07:57:09;102731.78;;;-4.83;88.83
14089;BME280;7120;52.890;6.040;2022-12-18T07:59:34;102725.72;;;-4.67;88.84
14089;BME280;7120;52.890;6.040;2022-12-18T08:02:00;102718.28;;;-4.63;89.11
14089;BME280;7120;52.890;6.040;2022-12-18T08:04:26;102716.59;;;-4.64;88.98
14089;BME280;7120;52.890;6.040;2022-12-18T08:06:52;102713.78;;;-4.63;89.10
14089;BME280;7120;52.890;6.040;2022-12-18T08:09:17;102710.81;;;-4.52;88.97
14089;BME280;7120;52.890;6.040;2022-12-18T08:11:43;102707.38;;;-4.44;89.28
14089;BME280;7120;52.890;6.040;2022-12-18T08:14:09;102710.59;;;-4.40;88.80
14089;BME280;7120;52.890;6.040;2022-12-18T08:16:35;102693.72;;;-4.41;88.38
14089;BME280;7120;52.890;6.040;2022-12-18T08:19:00;102691.06;;;-4.41;88.47
14089;BME280;7120;52.890;6.040;2022-12-18T08:21:28;102693.41;;;-4.38;88.35
14089;BME280;7120;52.890;6.040;2022-12-18T08:23:58;102706.88;;;-4.22;88.90
14089;BME280;7120;52.890;6.040;2022-12-18T08:26:25;102714.03;;;-4.22;88.43
14089;BME280;7120;52.890;6.040;2022-12-18T08:28:51;102714.09;;;-4.14;87.69
14089;BME280;7120;52.890;6.040;2022-12-18T08:31:18;102707.91;;;-4.15;87.90
14089;BME280;7120;52.890;6.040;2022-12-18T08:33:44;102717.16;;;-4.01;88.40
14089;BME280;7120;52.890;6.040;2022-12-18T08:36:09;102711.22;;;-3.87;87.14
14089;BME280;7120;52.890;6.040;2022-12-18T08:38:35;102700.56;;;-3.78;87.07
14089;BME280;7120;52.890;6.040;2022-12-18T08:41:09;102712.78;;;-3.68;86.66
14089;BME280;7120;52.890;6.040;2022-12-18T08:43:35;102689.44;;;-3.57;86.36
14089;BME280;7120;52.890;6.040;2022-12-18T08:46:20;102696.44;;;-3.56;86.52
14089;BME280;7120;52.890;6.040;2022-12-18T08:48:46;102701.50;;;-3.37;86.40
14089;BME280;7120;52.890;6.040;2022-12-18T08:51:12;102693.81;;;-3.32;85.67
14089;BME280;7120;52.890;6.040;2022-12-18T08:53:37;102685.28;;;-3.36;85.09
14089;BME280;7120;52.890;6.040;2022-12-18T08:56:04;102698.03;;;-3.21;86.24
14089;BME280;7120;52.890;6.040;2022-12-18T08:58:30;102692.16;;;-3.25;84.67
14089;BME280;7120;52.890;6.040;2022-12-18T09:01:06;102696.84;;;-3.19;84.85
14089;BME280;7120;52.890;6.040;2022-12-18T09:03:34;102697.19;;;-3.06;84.77
14089;BME280;7120;52.890;6.040;2022-12-18T09:05:59;102712.25;;;-2.96;84.94
14089;BME280;7120;52.890;6.040;2022-12-18T09:08:25;102696.88;;;-2.94;84.17
14089;BME280;7120;52.890;6.040;2022-12-18T09:10:51;102702.88;;;-2.68;85.13
14089;BME280;7120;52.890;6.040;2022-12-18T09:13:17;102660.41;;;-2.79;84.45
14089;BME280;7120;52.890;6.040;2022-12-18T09:15:45;102709.72;;;-2.49;84.43
14089;BME280;7120;52.890;6.040;2022-12-18T09:18:10;102713.25;;;-2.49;83.51
14089;BME280;7120;52.890;6.040;2022-12-18T09:20:36;102704.84;;;-2.29;82.98
14089;BME280;7120;52.890;6.040;2022-12-18T09:23:03;102687.81;;;-2.44;83.49
14089;BME280;7120;52.890;6.040;2022-12-18T09:25:29;102691.66;;;-2.39;82.88
14089;BME280;7120;52.890;6.040;2022-12-18T09:28:09;102679.50;;;-2.18;83.07
14089;BME280;7120;52.890;6.040;2022-12-18T09:30:40;102698.00;;;-2.40;82.29
14089;BME280;7120;52.890;6.040;2022-12-18T09:33:06;102728.16;;;-2.38;81.66
14089;BME280;7120;52.890;6.040;2022-12-18T09:35:41;102710.84;;;-2.11;82.37
14089;BME280;7120;52.890;6.040;2022-12-18T09:38:07;102718.34;;;-2.06;80.36
14089;BME280;7120;52.890;6.040;2022-12-18T09:40:42;102707.31;;;-2.19;81.30
14089;BME280;7120;52.890;6.040;2022-12-18T09:43:14;102715.09;;;-1.85;81.80
14089;BME280;7120;52.890;6.040;2022-12-18T09:45:44;102701.72;;;-1.94;80.48
14089;BME280;7120;52.890;6.040;2022-12-18T09:48:21;102703.47;;;-2.09;80.34
14089;BME280;7120;52.890;6.040;2022-12-18T09:50:49;102695.53;;;-1.94;81.12
14089;BME280;7120;52.890;6.040;2022-12-18T09:53:19;102703.47;;;-1.70;81.32
14089;BME280;7120;52.890;6.040;2022-12-18T09:55:46;102681.03;;;-1.77;80.65
14089;BME280;7120;52.890;6.040;2022-12-18T09:58:18;102680.41;;;-1.56;81.01
14089;BME280;7120;52.890;6.040;2022-12-18T10:00:44;102671.81;;;-1.74;80.20
14089;BME280;7120;52.890;6.040;2022-12-18T10:03:12;102660.41;;;-1.68;80.97
14089;BME280;7120;52.890;6.040;2022-12-18T10:08:41;102637.53;;;-1.87;80.20
14089;BME280;7120;52.890;6.040;2022-12-18T10:11:32;102640.91;;;-1.93;81.68
14089;BME280;7120;52.890;6.040;2022-12-18T10:17:02;102641.69;;;-1.84;81.47
14089;BME280;7120;52.890;6.040;2022-12-18T10:22:26;102618.50;;;-1.46;79.77
14089;BME280;7120;52.890;6.040;2022-12-18T10:25:25;102612.47;;;-1.48;79.46
14089;BME280;7120;52.890;6.040;2022-12-18T10:27:56;102606.50;;;-1.35;79.98
14089;BME280;7120;52.890;6.040;2022-12-18T10:30:24;102605.31;;;-1.56;79.90
14089;BME280;7120;52.890;6.040;2022-12-18T10:32:51;102613.34;;;-1.56;81.19
14089;BME280;7120;52.890;6.040;2022-12-18T10:35:19;102614.50;;;-1.27;80.38
14089;BME280;7120;52.890;6.040;2022-12-18T10:38:05;102608.34;;;-1.13;80.27
14089;BME280;7120;52.890;6.040;2022-12-18T10:40:32;102590.44;;;-0.98;79.34
14089;BME280;7120;52.890;6.040;2022-12-18T10:43:11;102596.75;;;-0.91;77.87
14089;BME280;7120;52.890;6.040;2022-12-18T10:45:37;102596.88;;;-0.69;78.50
14089;BME280;7120;52.890;6.040;2022-12-18T10:48:03;102599.66;;;-1.00;78.15
14089;BME280;7120;52.890;6.040;2022-12-18T10:50:35;102599.78;;;-0.94;77.65
14089;BME280;7120;52.890;6.040;2022-12-18T10:53:04;102599.53;;;-0.84;76.91
14089;BME280;7120;52.890;6.040;2022-12-18T10:55:33;102588.13;;;-0.86;77.93
14089;BME280;7120;52.890;6.040;2022-12-18T10:58:23;102580.91;;;-0.86;nan
14089;BME280;7120;52.890;6.040;2022-12-18T11:01:12;102570.63;;;-0.97;76.96
14089;BME280;7120;52.890;6.040;2022-12-18T11:03:44;102581.56;;;-0.84;77.10
14089;BME280;7120;52.890;6.040;2022-12-18T11:06:15;102571.66;;;-0.68;77.14
14089;BME280;7120;52.890;6.040;2022-12-18T11:08:43;102580.66;;;-0.46;75.77
14089;BME280;7120;52.890;6.040;2022-12-18T11:11:21;102585.19;;;-0.76;76.11
14089;BME280;7120;52.890;6.040;2022-12-18T11:14:19;102593.25;;;-0.62;75.97
14089;BME280;7120;52.890;6.040;2022-12-18T11:16:47;102582.88;;;-0.35;76.06
14089;BME280;7120;52.890;6.040;2022-12-18T11:19:33;102593.59;;;-0.06;76.64
14089;BME280;7120;52.890;6.040;2022-12-18T11:22:01;102579.59;;;-0.31;75.89
14089;BME280;7120;52.890;6.040;2022-12-18T11:24:30;102588.31;;;-0.29;75.36
14089;BME280;7120;52.890;6.040;2022-12-18T11:26:59;102566.63;;;-0.12;75.94
14089;BME280;7120;52.890;6.040;2022-12-18T11:29:35;102582.84;;;-0.06;74.55
14089;BME280;7120;52.890;6.040;2022-12-18T11:35:13;102560.59;;;-0.29;74.72
14089;BME280;7120;52.890;6.040;2022-12-18T11:37:43;102574.13;;;-0.22;75.04
14089;BME280;7120;52.890;6.040;2022-12-18T11:40:18;102566.44;;;-0.25;74.22
14089;BME280;7120;52.890;6.040;2022-12-18T11:45:30;102534.47;;;-0.20;73.69
14089;BME280;7120;52.890;6.040;2022-12-18T11:48:24;102542.50;;;-0.06;74.14
14089;BME280;7120;52.890;6.040;2022-12-18T11:50:54;102548.44;;;-0.10;72.96
14089;BME280;7120;52.890;6.040;2022-12-18T11:53:26;102516.84;;;-0.23;74.23
14089;BME280;7120;52.890;6.040;2022-12-18T11:56:28;102531.28;;;-0.09;73.42
14089;BME280;7120;52.890;6.040;2022-12-18T11:59:12;102510.66;;;-0.02;74.79
14089;BME280;7120;52.890;6.040;2022-12-18T12:01:48;102521.63;;;-0.04;74.11
14089;BME280;7120;52.890;6.040;2022-12-18T12:09:46;102494.66;;;-0.10;74.57
14089;BME280;7120;52.890;6.040;2022-12-18T12:20:52;102455.66;;;-0.21;74.79
14089;BME280;7120;52.890;6.040;2022-12-18T12:31:31;102451.34;;;0.27;74.18
14089;BME280;7120;52.890;6.040;2022-12-18T12:34:25;102449.31;;;0.30;73.99
14089;BME280;7120;52.890;6.040;2022-12-18T12:39:54;102425.69;;;0.25;73.79
14089;BME280;7120;52.890;6.040;2022-12-18T12:42:31;102418.59;;;0.17;72.43
14089;BME280;7120;52.890;6.040;2022-12-18T12:45:22;102424.06;;;0.31;72.18
14089;BME280;7120;52.890;6.040;2022-12-18T12:47:51;102429.66;;;0.29;73.25
14089;BME280;7120;52.890;6.040;2022-12-18T12:50:19;102421.81;;;0.34;72.80
14089;BME280;7120;52.890;6.040;2022-12-18T12:52:53;102423.25;;;0.30;74.33
14089;BME280;7120;52.890;6.040;2022-12-18T12:55:22;102416.94;;;0.44;73.45
14089;BME280;7120;52.890;6.040;2022-12-18T13:00:20;102394.84;;;0.27;72.11
14089;BME280;7120;52.890;6.040;2022-12-18T13:03:08;102416.72;;;0.46;72.68
14089;BME280;7120;52.890;6.040;2022-12-18T13:05:43;102399.41;;;0.27;71.93
14089;BME280;7120;52.890;6.040;2022-12-18T13:08:21;102421.53;;;0.22;73.15
14089;BME280;7120;52.890;6.040;2022-12-18T13:10:47;102407.03;;;0.23;73.09
14089;BME280;7120;52.890;6.040;2022-12-18T13:13:14;102389.13;;;0.09;74.08
14089;BME280;7120;52.890;6.040;2022-12-18T13:15:45;102416.09;;;0.16;73.71
14089;BME280;7120;52.890;6.040;2022-12-18T13:20:37;102392.16;;;0.27;73.31
14089;BME280;7120;52.890;6.040;2022-12-18T13:31:11;102388.94;;;0.39;73.75
14089;BME280;7120;52.890;6.040;2022-12-18T13:33:43;102388.22;;;0.23;73.28
14089;BME280;7120;52.890;6.040;2022-12-18T13:36:14;102379.69;;;0.20;73.57
14089;BME280;7120;52.890;6.040;2022-12-18T13:38:41;102395.16;;;0.39;72.51
14089;BME280;7120;52.890;6.040;2022-12-18T13:43:42;102384.19;;;0.41;73.22
14089;BME280;7120;52.890;6.040;2022-12-18T13:49:05;102371.63;;;0.20;73.59
14089;BME280;7120;52.890;6.040;2022-12-18T13:51:33;102376.63;;;0.23;72.47
14089;BME280;7120;52.890;6.040;2022-12-18T13:54:02;102373.84;;;0.38;73.36
14089;BME280;7120;52.890;6.040;2022-12-18T13:56:32;102361.88;;;0.47;73.33
14089;BME280;7120;52.890;6.040;2022-12-18T13:59:20;102364.19;;;0.50;74.01
14089;BME280;7120;52.890;6.040;2022-12-18T14:01:48;102365.66;;;0.52;73.52
14089;BME280;7120;52.890;6.040;2022-12-18T14:04:34;102324.69;;;-0.06;73.18
14089;BME280;7120;52.890;6.040;2022-12-18T14:07:21;102360.16;;;0.39;73.57
14089;BME280;7120;52.890;6.040;2022-12-18T14:09:58;102333.22;;;0.33;73.49
14089;BME280;7120;52.890;6.040;2022-12-18T14:12:33;102349.66;;;0.44;73.93
14089;BME280;7120;52.890;6.040;2022-12-18T14:15:27;102357.06;;;0.42;73.93
14089;BME280;7120;52.890;6.040;2022-12-18T14:17:58;102368.50;;;0.44;73.44
14089;BME280;7120;52.890;6.040;2022-12-18T14:20:25;102357.72;;;0.44;72.92
14089;BME280;7120;52.890;6.040;2022-12-18T14:22:51;102363.84;;;0.32;73.09
14089;BME280;7120;52.890;6.040;2022-12-18T14:25:22;102359.28;;;0.32;73.61
14089;BME280;7120;52.890;6.040;2022-12-18T14:33:12;102327.03;;;0.04;74.00
14089;BME280;7120;52.890;6.040;2022-12-18T14:35:53;102317.13;;;0.11;74.13
14089;BME280;7120;52.890;6.040;2022-12-18T14:40:54;102285.38;;;-0.07;73.26